Terminal Aerodrome Forecast
Issued by NWS

Home | Current Version | Previous Version | Text Only | Print | Product List | Glossary On
Versions: 1 2 3 4 5 6 7 8 9 10 11 12 13 14 15 16 17 18 19 20 21 22 23 24 25 26
000
FTAK31 PANC 041125
TAFATK
TAF
PATK 041125Z 0412/0512 00000KT P6SM -RA SCT025 OVC045
     FM041500 00000KT P6SM -RA SCT010 BKN025
     FM050400 VRB03KT P6SM VCSH SCT025 BKN120=

USA.gov is the U.S. government's official web portal to all federal, state and local government web resources and services.